CTV343 WAAA-WADD
Flight info
| Callsign | CTV343 |
|---|---|
| Flight time | 1h 8m |
| Altitude | 34000 |
| Route | LIPOT W41 PEDET |
| Aircraft | A320/M-SDE3FGHIRWY/LB1 |
Departure
| Time | 2026-04-26 00:01 |
|---|---|
| Airport | Sultan Hasanuddin International Airport (WAAA) |
Arrival
| Time | 2026-04-26 01:09 |
|---|---|
| Airport | Denpasar I Gusti Ngurah Rai International Airport (WADD) |
| Time | Latitude | Longitude | Altitude | Speed | Heading |
|---|---|---|---|---|---|
| 2026-04-25 23:32 | -5.07710 | 119.54769 | 41 ft | 0 kts | 299° |
| 2026-04-25 23:51 | -5.07711 | 119.54771 | 41 ft | 2 kts | 299° |
| 2026-04-25 23:51 | -5.07723 | 119.54794 | 39 ft | 4 kts | 291° |
| 2026-04-25 23:52 | -5.07731 | 119.54819 | 41 ft | 4 kts | 270° |
| 2026-04-25 23:52 | -5.07725 | 119.54840 | 41 ft | 3 kts | 213° |
| 2026-04-25 23:52 | -5.07722 | 119.54842 | 41 ft | 0 kts | 210° |
| 2026-04-25 23:54 | -5.07727 | 119.54839 | 41 ft | 3 kts | 210° |
| 2026-04-25 23:54 | -5.07763 | 119.54817 | 41 ft | 8 kts | 211° |
| 2026-04-25 23:54 | -5.07829 | 119.54779 | 41 ft | 13 kts | 210° |
| 2026-04-25 23:55 | -5.07904 | 119.54736 | 41 ft | 12 kts | 210° |
| 2026-04-25 23:55 | -5.07977 | 119.54721 | 41 ft | 10 kts | 163° |
| 2026-04-25 23:55 | -5.08023 | 119.54769 | 41 ft | 9 kts | 119° |
| 2026-04-25 23:55 | -5.08055 | 119.54825 | 41 ft | 10 kts | 120° |
| 2026-04-25 23:56 | -5.08129 | 119.54835 | 41 ft | 13 kts | 204° |
| 2026-04-25 23:56 | -5.08210 | 119.54788 | 41 ft | 13 kts | 210° |
| 2026-04-25 23:56 | -5.08284 | 119.54745 | 41 ft | 11 kts | 210° |
| 2026-04-25 23:56 | -5.08349 | 119.54708 | 41 ft | 10 kts | 210° |
| 2026-04-25 23:57 | -5.08405 | 119.54675 | 41 ft | 9 kts | 211° |
| 2026-04-25 23:57 | -5.08465 | 119.54640 | 41 ft | 11 kts | 210° |
| 2026-04-25 23:57 | -5.08535 | 119.54600 | 41 ft | 14 kts | 210° |
| 2026-04-25 23:57 | -5.08627 | 119.54548 | 41 ft | 15 kts | 209° |
| 2026-04-25 23:58 | -5.08714 | 119.54498 | 41 ft | 14 kts | 210° |
| 2026-04-25 23:58 | -5.08791 | 119.54453 | 41 ft | 12 kts | 210° |
| 2026-04-25 23:58 | -5.08860 | 119.54413 | 41 ft | 12 kts | 210° |
| 2026-04-25 23:58 | -5.08950 | 119.54361 | 41 ft | 16 kts | 210° |
| 2026-04-25 23:59 | -5.09042 | 119.54308 | 41 ft | 14 kts | 210° |
| 2026-04-25 23:59 | -5.09126 | 119.54276 | 41 ft | 12 kts | 176° |
| 2026-04-25 23:59 | -5.09182 | 119.54323 | 41 ft | 10 kts | 121° |
| 2026-04-25 23:59 | -5.09212 | 119.54377 | 40 ft | 8 kts | 118° |
| 2026-04-26 00:00 | -5.09209 | 119.54417 | 42 ft | 5 kts | 39° |
| 2026-04-26 00:00 | -5.09153 | 119.54450 | 43 ft | 22 kts | 30° |
| 2026-04-26 00:00 | -5.08963 | 119.54558 | 44 ft | 71 kts | 30° |
| 2026-04-26 00:00 | -5.08074 | 119.55071 | 40 ft | 147 kts | 30° |
| 2026-04-26 00:01 | -5.07419 | 119.55448 | 101 ft | 171 kts | 30° |
| 2026-04-26 00:01 | -5.05917 | 119.55833 | 868 ft | 176 kts | 355° |
| 2026-04-26 00:01 | -5.05082 | 119.55775 | 1291 ft | 181 kts | 359° |
| 2026-04-26 00:01 | -5.03309 | 119.55761 | 1745 ft | 205 kts | 1° |
| 2026-04-26 00:02 | -5.01817 | 119.55777 | 2037 ft | 224 kts | 1° |
| 2026-04-26 00:02 | -5.00171 | 119.55800 | 2344 ft | 249 kts | 1° |
| 2026-04-26 00:02 | -4.98374 | 119.55822 | 2904 ft | 264 kts | 359° |
| 2026-04-26 00:02 | -4.96585 | 119.55397 | 3669 ft | 272 kts | 329° |
| 2026-04-26 00:03 | -4.95292 | 119.54020 | 4447 ft | 278 kts | 295° |
| 2026-04-26 00:03 | -4.94864 | 119.52129 | 5272 ft | 281 kts | 272° |
| 2026-04-26 00:03 | -4.94878 | 119.50801 | 5839 ft | 283 kts | 266° |
| 2026-04-26 00:03 | -4.95054 | 119.48830 | 6641 ft | 286 kts | 264° |
| 2026-04-26 00:04 | -4.95250 | 119.46835 | 7410 ft | 289 kts | 265° |
| 2026-04-26 00:04 | -4.95390 | 119.44811 | 8160 ft | 293 kts | 267° |
| 2026-04-26 00:04 | -4.95457 | 119.42760 | 8914 ft | 296 kts | 269° |
| 2026-04-26 00:04 | -4.95466 | 119.40678 | 9667 ft | 300 kts | 270° |
| 2026-04-26 00:05 | -4.95434 | 119.38570 | 10272 ft | 308 kts | 271° |
| 2026-04-26 00:05 | -4.95380 | 119.36344 | 10452 ft | 331 kts | 271° |
| 2026-04-26 00:05 | -4.95311 | 119.33956 | 10633 ft | 352 kts | 271° |
| 2026-04-26 00:05 | -4.95237 | 119.31470 | 11125 ft | 360 kts | 271° |
| 2026-04-26 00:06 | -4.95164 | 119.28944 | 11735 ft | 364 kts | 271° |
| 2026-04-26 00:06 | -4.95095 | 119.26394 | 12354 ft | 368 kts | 271° |
| 2026-04-26 00:06 | -4.95033 | 119.23851 | 12948 ft | 372 kts | 271° |
| 2026-04-26 00:06 | -4.94969 | 119.21212 | 13556 ft | 376 kts | 271° |
| 2026-04-26 00:07 | -4.94906 | 119.18615 | 14105 ft | 379 kts | 271° |
| 2026-04-26 00:07 | -4.94842 | 119.15965 | 14643 ft | 382 kts | 271° |
| 2026-04-26 00:07 | -4.94777 | 119.13290 | 15180 ft | 385 kts | 271° |
| 2026-04-26 00:07 | -4.94710 | 119.10593 | 15700 ft | 388 kts | 271° |
| 2026-04-26 00:08 | -4.94641 | 119.07877 | 16219 ft | 392 kts | 271° |
| 2026-04-26 00:08 | -4.94571 | 119.05135 | 16736 ft | 395 kts | 271° |
| 2026-04-26 00:08 | -4.94499 | 119.02376 | 17243 ft | 398 kts | 271° |
| 2026-04-26 00:08 | -4.94426 | 118.99593 | 17742 ft | 401 kts | 271° |
| 2026-04-26 00:09 | -4.94352 | 118.96790 | 18230 ft | 404 kts | 271° |
| 2026-04-26 00:09 | -4.94278 | 118.93965 | 18632 ft | 407 kts | 271° |
| 2026-04-26 00:09 | -4.94203 | 118.91116 | 19032 ft | 410 kts | 271° |
| 2026-04-26 00:09 | -4.94131 | 118.88244 | 19434 ft | 413 kts | 271° |
| 2026-04-26 00:10 | -4.94058 | 118.85355 | 19827 ft | 416 kts | 271° |
| 2026-04-26 00:10 | -4.93984 | 118.82445 | 20217 ft | 419 kts | 271° |
| 2026-04-26 00:10 | -4.93920 | 118.79519 | 20603 ft | 422 kts | 269° |
| 2026-04-26 00:10 | -4.94214 | 118.76590 | 20981 ft | 425 kts | 258° |
| 2026-04-26 00:11 | -4.95056 | 118.73745 | 21352 ft | 427 kts | 247° |
| 2026-04-26 00:11 | -4.96428 | 118.71101 | 21711 ft | 429 kts | 236° |
| 2026-04-26 00:11 | -4.98242 | 118.68716 | 22068 ft | 431 kts | 230° |
| 2026-04-26 00:11 | -5.00127 | 118.66365 | 22431 ft | 434 kts | 230° |
| 2026-04-26 00:12 | -5.02016 | 118.63991 | 22775 ft | 437 kts | 231° |
| 2026-04-26 00:12 | -5.03910 | 118.61601 | 23152 ft | 439 kts | 231° |
| 2026-04-26 00:12 | -5.05813 | 118.59198 | 23507 ft | 441 kts | 231° |
| 2026-04-26 00:12 | -5.07729 | 118.56784 | 23788 ft | 444 kts | 231° |
| 2026-04-26 00:13 | -5.09657 | 118.54357 | 24086 ft | 446 kts | 231° |
| 2026-04-26 00:13 | -5.11593 | 118.51921 | 24385 ft | 447 kts | 231° |
| 2026-04-26 00:13 | -5.13509 | 118.49507 | 24678 ft | 449 kts | 231° |
| 2026-04-26 00:13 | -5.15484 | 118.47017 | 24974 ft | 451 kts | 231° |
| 2026-04-26 00:14 | -5.17439 | 118.44551 | 25260 ft | 453 kts | 231° |
| 2026-04-26 00:14 | -5.19406 | 118.42070 | 25543 ft | 455 kts | 231° |
| 2026-04-26 00:14 | -5.21353 | 118.39615 | 25819 ft | 457 kts | 230° |
| 2026-04-26 00:14 | -5.23357 | 118.37138 | 26091 ft | 458 kts | 227° |
| 2026-04-26 00:15 | -5.25646 | 118.34921 | 26360 ft | 458 kts | 218° |
| 2026-04-26 00:15 | -5.28195 | 118.32994 | 26628 ft | 459 kts | 215° |
| 2026-04-26 00:15 | -5.30769 | 118.31085 | 26909 ft | 461 kts | 215° |
| 2026-04-26 00:15 | -5.33353 | 118.29166 | 27186 ft | 463 kts | 215° |
| 2026-04-26 00:16 | -5.35943 | 118.27240 | 27462 ft | 465 kts | 215° |
| 2026-04-26 00:16 | -5.38543 | 118.25304 | 27717 ft | 467 kts | 215° |
| 2026-04-26 00:16 | -5.41155 | 118.23356 | 27968 ft | 469 kts | 215° |
| 2026-04-26 00:16 | -5.43778 | 118.21398 | 28224 ft | 471 kts | 215° |
| 2026-04-26 00:17 | -5.46409 | 118.19433 | 28472 ft | 472 kts | 215° |
| 2026-04-26 00:17 | -5.49050 | 118.17463 | 28714 ft | 474 kts | 215° |
| 2026-04-26 00:17 | -5.51703 | 118.15484 | 28948 ft | 476 kts | 215° |
| 2026-04-26 00:17 | -5.54364 | 118.13502 | 29180 ft | 477 kts | 214° |
| 2026-04-26 00:18 | -5.57165 | 118.11728 | 29406 ft | 477 kts | 205° |
| 2026-04-26 00:18 | -5.60184 | 118.10340 | 29625 ft | 477 kts | 201° |
| 2026-04-26 00:18 | -5.63237 | 118.09013 | 29849 ft | 479 kts | 201° |
| 2026-04-26 00:18 | -5.66299 | 118.07679 | 30060 ft | 481 kts | 201° |
| 2026-04-26 00:19 | -5.69369 | 118.06336 | 30270 ft | 481 kts | 201° |
| 2026-04-26 00:19 | -5.72434 | 118.04992 | 30572 ft | 480 kts | 201° |
| 2026-04-26 00:19 | -5.75488 | 118.03650 | 30859 ft | 479 kts | 202° |
| 2026-04-26 00:19 | -5.78537 | 118.02309 | 31142 ft | 478 kts | 202° |
| 2026-04-26 00:20 | -5.81578 | 118.00972 | 31434 ft | 477 kts | 202° |
| 2026-04-26 00:20 | -5.84618 | 117.99641 | 31715 ft | 476 kts | 202° |
| 2026-04-26 00:20 | -5.87654 | 117.98311 | 32003 ft | 475 kts | 202° |
| 2026-04-26 00:20 | -5.90684 | 117.96986 | 32295 ft | 475 kts | 202° |
| 2026-04-26 00:21 | -5.93706 | 117.95663 | 32591 ft | 474 kts | 202° |
| 2026-04-26 00:21 | -5.96726 | 117.94339 | 32884 ft | 473 kts | 202° |
| 2026-04-26 00:21 | -5.99736 | 117.93016 | 33174 ft | 472 kts | 202° |
| 2026-04-26 00:21 | -6.02744 | 117.91694 | 33479 ft | 471 kts | 202° |
| 2026-04-26 00:22 | -6.05748 | 117.90378 | 33771 ft | 471 kts | 202° |
| 2026-04-26 00:22 | -6.08749 | 117.89063 | 33897 ft | 470 kts | 202° |
| 2026-04-26 00:22 | -6.11737 | 117.87748 | 33922 ft | 469 kts | 202° |
| 2026-04-26 00:23 | -6.17712 | 117.85129 | 33920 ft | 468 kts | 202° |
| 2026-04-26 00:23 | -6.23686 | 117.82519 | 33921 ft | 468 kts | 202° |
| 2026-04-26 00:24 | -6.29650 | 117.79901 | 33920 ft | 468 kts | 202° |
| 2026-04-26 00:24 | -6.35609 | 117.77268 | 33923 ft | 468 kts | 202° |
| 2026-04-26 00:25 | -6.41534 | 117.74661 | 33920 ft | 468 kts | 202° |
| 2026-04-26 00:25 | -6.47499 | 117.72050 | 33916 ft | 468 kts | 202° |
| 2026-04-26 00:26 | -6.53464 | 117.69435 | 33917 ft | 468 kts | 202° |
| 2026-04-26 00:26 | -6.59427 | 117.66819 | 33916 ft | 467 kts | 202° |
| 2026-04-26 00:27 | -6.65358 | 117.64130 | 33916 ft | 468 kts | 207° |
| 2026-04-26 00:27 | -6.70499 | 117.60120 | 33914 ft | 471 kts | 226° |
| 2026-04-26 00:28 | -6.74735 | 117.55088 | 33914 ft | 472 kts | 229° |
| 2026-04-26 00:28 | -6.78989 | 117.50049 | 33914 ft | 472 kts | 229° |
| 2026-04-26 00:29 | -6.83242 | 117.45007 | 33912 ft | 472 kts | 229° |
| 2026-04-26 00:29 | -6.87487 | 117.39961 | 33913 ft | 473 kts | 229° |
| 2026-04-26 00:30 | -6.91741 | 117.34912 | 33911 ft | 473 kts | 228° |
| 2026-04-26 00:30 | -6.95993 | 117.29866 | 33914 ft | 473 kts | 229° |
| 2026-04-26 00:31 | -7.00214 | 117.24842 | 33753 ft | 475 kts | 229° |
| 2026-04-26 00:31 | -7.02343 | 117.22310 | 33289 ft | 474 kts | 229° |
| 2026-04-26 00:31 | -7.04476 | 117.19774 | 32846 ft | 475 kts | 229° |
| 2026-04-26 00:31 | -7.06611 | 117.17234 | 32405 ft | 476 kts | 229° |
| 2026-04-26 00:32 | -7.08744 | 117.14691 | 31969 ft | 477 kts | 229° |
| 2026-04-26 00:32 | -7.10890 | 117.12135 | 31538 ft | 478 kts | 229° |
| 2026-04-26 00:32 | -7.15187 | 117.07012 | 30716 ft | 478 kts | 229° |
| 2026-04-26 00:33 | -7.17329 | 117.04460 | 30291 ft | 475 kts | 229° |
| 2026-04-26 00:33 | -7.19461 | 117.01928 | 29879 ft | 473 kts | 228° |
| 2026-04-26 00:33 | -7.21578 | 116.99410 | 29401 ft | 470 kts | 229° |
| 2026-04-26 00:33 | -7.23680 | 116.96904 | 28934 ft | 467 kts | 229° |
| 2026-04-26 00:34 | -7.25768 | 116.94417 | 28467 ft | 463 kts | 229° |
| 2026-04-26 00:34 | -7.27841 | 116.91948 | 28022 ft | 460 kts | 228° |
| 2026-04-26 00:34 | -7.29899 | 116.89501 | 27576 ft | 457 kts | 228° |
| 2026-04-26 00:34 | -7.31946 | 116.87064 | 27130 ft | 454 kts | 228° |
| 2026-04-26 00:35 | -7.33974 | 116.84645 | 26699 ft | 451 kts | 228° |
| 2026-04-26 00:35 | -7.35990 | 116.82237 | 26273 ft | 448 kts | 228° |
| 2026-04-26 00:35 | -7.37991 | 116.79848 | 25858 ft | 445 kts | 228° |
| 2026-04-26 00:35 | -7.39982 | 116.77470 | 25443 ft | 442 kts | 228° |
| 2026-04-26 00:36 | -7.41959 | 116.75113 | 25038 ft | 440 kts | 228° |
| 2026-04-26 00:36 | -7.43929 | 116.72764 | 24644 ft | 437 kts | 228° |
| 2026-04-26 00:36 | -7.45882 | 116.70434 | 24208 ft | 434 kts | 228° |
| 2026-04-26 00:36 | -7.47824 | 116.68117 | 23773 ft | 431 kts | 228° |
| 2026-04-26 00:37 | -7.49753 | 116.65813 | 23324 ft | 429 kts | 228° |
| 2026-04-26 00:37 | -7.51671 | 116.63528 | 22971 ft | 425 kts | 228° |
| 2026-04-26 00:37 | -7.53578 | 116.61307 | 22768 ft | 425 kts | 227° |
| 2026-04-26 00:37 | -7.55537 | 116.59083 | 22648 ft | 424 kts | 226° |
| 2026-04-26 00:38 | -7.57504 | 116.56877 | 22528 ft | 423 kts | 226° |
| 2026-04-26 00:38 | -7.59473 | 116.54676 | 22426 ft | 422 kts | 226° |
| 2026-04-26 00:38 | -7.61433 | 116.52480 | 22294 ft | 421 kts | 226° |
| 2026-04-26 00:38 | -7.63383 | 116.50284 | 22178 ft | 420 kts | 226° |
| 2026-04-26 00:39 | -7.65323 | 116.48083 | 22059 ft | 419 kts | 227° |
| 2026-04-26 00:39 | -7.67254 | 116.45883 | 21940 ft | 418 kts | 226° |
| 2026-04-26 00:39 | -7.69179 | 116.43691 | 21825 ft | 418 kts | 226° |
| 2026-04-26 00:39 | -7.71105 | 116.41501 | 21704 ft | 417 kts | 226° |
| 2026-04-26 00:40 | -7.73027 | 116.39315 | 21591 ft | 416 kts | 226° |
| 2026-04-26 00:40 | -7.74944 | 116.37131 | 21479 ft | 415 kts | 227° |
| 2026-04-26 00:40 | -7.76855 | 116.34954 | 21367 ft | 415 kts | 226° |
| 2026-04-26 00:40 | -7.78766 | 116.32779 | 21247 ft | 414 kts | 226° |
| 2026-04-26 00:41 | -7.80599 | 116.30545 | 21133 ft | 414 kts | 234° |
| 2026-04-26 00:41 | -7.82008 | 116.28007 | 21016 ft | 416 kts | 246° |
| 2026-04-26 00:41 | -7.82898 | 116.25236 | 20900 ft | 416 kts | 257° |
| 2026-04-26 00:41 | -7.83251 | 116.22344 | 20786 ft | 416 kts | 267° |
| 2026-04-26 00:42 | -7.83388 | 116.19429 | 20668 ft | 416 kts | 267° |
| 2026-04-26 00:42 | -7.83524 | 116.16518 | 20553 ft | 415 kts | 266° |
| 2026-04-26 00:42 | -7.83660 | 116.13618 | 20439 ft | 414 kts | 266° |
| 2026-04-26 00:42 | -7.83798 | 116.10722 | 20326 ft | 413 kts | 266° |
| 2026-04-26 00:43 | -7.83936 | 116.07833 | 20200 ft | 412 kts | 266° |
| 2026-04-26 00:43 | -7.84076 | 116.04946 | 20094 ft | 412 kts | 266° |
| 2026-04-26 00:43 | -7.84213 | 116.02071 | 19980 ft | 411 kts | 266° |
| 2026-04-26 00:43 | -7.84345 | 115.99194 | 19866 ft | 410 kts | 267° |
| 2026-04-26 00:44 | -7.84476 | 115.96324 | 19755 ft | 409 kts | 267° |
| 2026-04-26 00:44 | -7.84606 | 115.93465 | 19639 ft | 408 kts | 266° |
| 2026-04-26 00:44 | -7.84737 | 115.90611 | 19527 ft | 407 kts | 266° |
| 2026-04-26 00:44 | -7.84870 | 115.87760 | 19418 ft | 406 kts | 266° |
| 2026-04-26 00:45 | -7.85002 | 115.84917 | 19304 ft | 405 kts | 266° |
| 2026-04-26 00:45 | -7.85091 | 115.83038 | 19230 ft | 405 kts | 266° |
| 2026-04-26 00:45 | -7.85269 | 115.79292 | 19081 ft | 404 kts | 266° |
| 2026-04-26 00:45 | -7.85400 | 115.76466 | 18969 ft | 403 kts | 266° |
| 2026-04-26 00:46 | -7.85533 | 115.73647 | 18848 ft | 402 kts | 266° |
| 2026-04-26 00:46 | -7.85667 | 115.70833 | 18725 ft | 401 kts | 266° |
| 2026-04-26 00:46 | -7.85798 | 115.68022 | 18602 ft | 400 kts | 266° |
| 2026-04-26 00:46 | -7.85926 | 115.65220 | 18482 ft | 400 kts | 266° |
| 2026-04-26 00:47 | -7.86055 | 115.62423 | 18364 ft | 399 kts | 266° |
| 2026-04-26 00:47 | -7.86185 | 115.59632 | 18243 ft | 398 kts | 266° |
| 2026-04-26 00:47 | -7.86313 | 115.56843 | 18109 ft | 398 kts | 266° |
| 2026-04-26 00:47 | -7.86440 | 115.54062 | 17986 ft | 397 kts | 266° |
| 2026-04-26 00:48 | -7.86567 | 115.51284 | 17866 ft | 396 kts | 266° |
| 2026-04-26 00:48 | -7.86695 | 115.48514 | 17745 ft | 395 kts | 266° |
| 2026-04-26 00:48 | -7.86826 | 115.45746 | 17623 ft | 395 kts | 266° |
| 2026-04-26 00:48 | -7.86958 | 115.42986 | 17505 ft | 394 kts | 266° |
| 2026-04-26 00:49 | -7.87088 | 115.40231 | 17388 ft | 393 kts | 266° |
| 2026-04-26 00:49 | -7.87215 | 115.37479 | 17265 ft | 392 kts | 266° |
| 2026-04-26 00:49 | -7.87339 | 115.34733 | 17145 ft | 392 kts | 266° |
| 2026-04-26 00:49 | -7.87463 | 115.31991 | 17033 ft | 391 kts | 266° |
| 2026-04-26 00:50 | -7.87588 | 115.29253 | 16907 ft | 390 kts | 266° |
| 2026-04-26 00:50 | -7.87714 | 115.26524 | 16791 ft | 389 kts | 266° |
| 2026-04-26 00:50 | -7.87840 | 115.23798 | 16672 ft | 389 kts | 266° |
| 2026-04-26 00:50 | -7.87922 | 115.21995 | 16592 ft | 388 kts | 266° |
| 2026-04-26 00:51 | -7.88177 | 115.18409 | 16433 ft | 386 kts | 259° |
| 2026-04-26 00:51 | -7.88868 | 115.15802 | 16315 ft | 384 kts | 247° |
| 2026-04-26 00:51 | -7.90046 | 115.13402 | 16204 ft | 381 kts | 236° |
| 2026-04-26 00:51 | -7.91543 | 115.11205 | 16088 ft | 380 kts | 233° |
| 2026-04-26 00:52 | -7.93052 | 115.09012 | 15969 ft | 380 kts | 233° |
| 2026-04-26 00:52 | -7.94553 | 115.06820 | 15850 ft | 379 kts | 233° |
| 2026-04-26 00:52 | -7.96047 | 115.04629 | 15732 ft | 379 kts | 233° |
| 2026-04-26 00:52 | -7.97035 | 115.03179 | 15664 ft | 378 kts | 233° |
| 2026-04-26 00:53 | -7.99028 | 115.00255 | 15506 ft | 378 kts | 233° |
| 2026-04-26 00:53 | -8.00517 | 114.98075 | 15393 ft | 377 kts | 233° |
| 2026-04-26 00:53 | -8.02004 | 114.95900 | 15280 ft | 376 kts | 233° |
| 2026-04-26 00:53 | -8.03488 | 114.93726 | 15168 ft | 376 kts | 233° |
| 2026-04-26 00:54 | -8.04470 | 114.92288 | 15092 ft | 375 kts | 233° |
| 2026-04-26 00:54 | -8.05948 | 114.90123 | 14977 ft | 375 kts | 233° |
| 2026-04-26 00:54 | -8.07426 | 114.87959 | 14799 ft | 374 kts | 233° |
| 2026-04-26 00:54 | -8.09392 | 114.85074 | 14479 ft | 372 kts | 233° |
| 2026-04-26 00:55 | -8.10360 | 114.83651 | 14327 ft | 371 kts | 233° |
| 2026-04-26 00:55 | -8.12293 | 114.80815 | 14019 ft | 370 kts | 233° |
| 2026-04-26 00:55 | -8.13277 | 114.79370 | 13870 ft | 369 kts | 233° |
| 2026-04-26 00:55 | -8.15198 | 114.76554 | 13544 ft | 367 kts | 233° |
| 2026-04-26 00:56 | -8.16175 | 114.75123 | 13386 ft | 366 kts | 233° |
| 2026-04-26 00:56 | -8.17616 | 114.73013 | 13160 ft | 365 kts | 234° |
| 2026-04-26 00:56 | -8.19055 | 114.70907 | 12932 ft | 363 kts | 233° |
| 2026-04-26 00:56 | -8.20467 | 114.68841 | 12766 ft | 362 kts | 234° |
| 2026-04-26 00:57 | -8.21893 | 114.66750 | 12572 ft | 361 kts | 234° |
| 2026-04-26 00:57 | -8.23431 | 114.64758 | 12348 ft | 358 kts | 222° |
| 2026-04-26 00:57 | -8.25445 | 114.63332 | 12122 ft | 352 kts | 202° |
| 2026-04-26 00:57 | -8.27776 | 114.62648 | 11788 ft | 349 kts | 185° |
| 2026-04-26 00:58 | -8.30206 | 114.62740 | 10894 ft | 354 kts | 165° |
| 2026-04-26 00:58 | -8.32520 | 114.63618 | 10266 ft | 354 kts | 154° |
| 2026-04-26 00:58 | -8.34713 | 114.64608 | 10137 ft | 334 kts | 155° |
| 2026-04-26 00:58 | -8.36767 | 114.65506 | 10017 ft | 309 kts | 155° |
| 2026-04-26 00:59 | -8.38694 | 114.66335 | 9770 ft | 294 kts | 155° |
| 2026-04-26 00:59 | -8.40564 | 114.67139 | 9654 ft | 291 kts | 155° |
| 2026-04-26 00:59 | -8.42417 | 114.67939 | 9517 ft | 290 kts | 155° |
| 2026-04-26 00:59 | -8.44275 | 114.68741 | 9254 ft | 289 kts | 155° |
| 2026-04-26 01:00 | -8.46116 | 114.69539 | 8989 ft | 287 kts | 155° |
| 2026-04-26 01:00 | -8.47948 | 114.70335 | 8715 ft | 286 kts | 155° |
| 2026-04-26 01:00 | -8.49770 | 114.71130 | 8438 ft | 285 kts | 155° |
| 2026-04-26 01:00 | -8.51586 | 114.71925 | 8162 ft | 284 kts | 155° |
| 2026-04-26 01:01 | -8.53389 | 114.72715 | 7888 ft | 283 kts | 155° |
| 2026-04-26 01:01 | -8.55152 | 114.73587 | 7610 ft | 281 kts | 146° |
| 2026-04-26 01:01 | -8.56675 | 114.74800 | 7340 ft | 279 kts | 138° |
| 2026-04-26 01:01 | -8.58142 | 114.76080 | 7064 ft | 278 kts | 138° |
| 2026-04-26 01:02 | -8.59609 | 114.77351 | 6794 ft | 277 kts | 138° |
| 2026-04-26 01:02 | -8.61072 | 114.78615 | 6527 ft | 277 kts | 138° |
| 2026-04-26 01:02 | -8.62533 | 114.79878 | 6244 ft | 276 kts | 138° |
| 2026-04-26 01:02 | -8.63987 | 114.81135 | 5973 ft | 275 kts | 138° |
| 2026-04-26 01:03 | -8.65438 | 114.82390 | 5707 ft | 274 kts | 138° |
| 2026-04-26 01:03 | -8.66881 | 114.83641 | 5427 ft | 273 kts | 138° |
| 2026-04-26 01:03 | -8.68317 | 114.84888 | 5160 ft | 271 kts | 138° |
| 2026-04-26 01:03 | -8.69748 | 114.86127 | 4895 ft | 271 kts | 138° |
| 2026-04-26 01:04 | -8.71176 | 114.87361 | 4630 ft | 269 kts | 138° |
| 2026-04-26 01:04 | -8.72597 | 114.88589 | 4359 ft | 268 kts | 138° |
| 2026-04-26 01:04 | -8.73985 | 114.89818 | 4097 ft | 261 kts | 133° |
| 2026-04-26 01:04 | -8.74993 | 114.91267 | 3846 ft | 252 kts | 114° |
| 2026-04-26 01:05 | -8.75461 | 114.92935 | 3607 ft | 244 kts | 95° |
| 2026-04-26 01:05 | -8.75494 | 114.94627 | 3367 ft | 238 kts | 90° |
| 2026-04-26 01:05 | -8.75497 | 114.96277 | 3139 ft | 232 kts | 90° |
| 2026-04-26 01:05 | -8.75505 | 114.97894 | 2905 ft | 228 kts | 90° |
| 2026-04-26 01:06 | -8.75516 | 114.99479 | 2676 ft | 223 kts | 90° |
| 2026-04-26 01:06 | -8.75485 | 115.01036 | 2462 ft | 219 kts | 88° |
| 2026-04-26 01:06 | -8.75425 | 115.02560 | 2245 ft | 215 kts | 87° |
| 2026-04-26 01:06 | -8.75360 | 115.04056 | 2043 ft | 211 kts | 87° |
| 2026-04-26 01:07 | -8.75293 | 115.05532 | 1834 ft | 209 kts | 87° |
| 2026-04-26 01:07 | -8.75231 | 115.06987 | 1618 ft | 204 kts | 88° |
| 2026-04-26 01:07 | -8.75173 | 115.08389 | 1357 ft | 195 kts | 88° |
| 2026-04-26 01:07 | -8.75118 | 115.09711 | 1132 ft | 181 kts | 87° |
| 2026-04-26 01:08 | -8.75067 | 115.10929 | 891 ft | 166 kts | 88° |
| 2026-04-26 01:08 | -8.75021 | 115.12061 | 684 ft | 157 kts | 87° |
| 2026-04-26 01:08 | -8.74990 | 115.13154 | 464 ft | 154 kts | 87° |
| 2026-04-26 01:08 | -8.74949 | 115.14236 | 283 ft | 154 kts | 86° |
| 2026-04-26 01:09 | -8.74901 | 115.15323 | 92 ft | 155 kts | 86° |
| 2026-04-26 01:09 | -8.74859 | 115.16348 | 29 ft | 130 kts | 88° |
| 2026-04-26 01:09 | -8.74827 | 115.17168 | 27 ft | 105 kts | 88° |
| 2026-04-26 01:09 | -8.74805 | 115.17645 | 28 ft | 34 kts | 87° |
| 2026-04-26 01:10 | -8.74788 | 115.17781 | 28 ft | 9 kts | 44° |
| 2026-04-26 01:10 | -8.74740 | 115.17791 | 30 ft | 5 kts | 357° |
| 2026-04-26 01:10 | -8.74711 | 115.17789 | 31 ft | 5 kts | 356° |
| 2026-04-26 01:10 | -8.74672 | 115.17785 | 32 ft | 8 kts | 347° |
| 2026-04-26 01:11 | -8.74637 | 115.17724 | 33 ft | 14 kts | 269° |
| 2026-04-26 01:11 | -8.74641 | 115.17618 | 33 ft | 16 kts | 268° |
| 2026-04-26 01:11 | -8.74647 | 115.17496 | 32 ft | 18 kts | 268° |
| 2026-04-26 01:11 | -8.74652 | 115.17361 | 32 ft | 20 kts | 267° |
| 2026-04-26 01:12 | -8.74659 | 115.17210 | 32 ft | 22 kts | 267° |
| 2026-04-26 01:12 | -8.74668 | 115.17048 | 32 ft | 24 kts | 267° |
| 2026-04-26 01:12 | -8.74671 | 115.16876 | 32 ft | 24 kts | 267° |
| 2026-04-26 01:12 | -8.74680 | 115.16705 | 32 ft | 25 kts | 268° |
| 2026-04-26 01:13 | -8.74687 | 115.16525 | 32 ft | 26 kts | 268° |
| 2026-04-26 01:13 | -8.74695 | 115.16343 | 33 ft | 23 kts | 267° |
| 2026-04-26 01:13 | -8.74700 | 115.16220 | 33 ft | 15 kts | 268° |
| 2026-04-26 01:13 | -8.74691 | 115.16145 | 31 ft | 8 kts | 316° |
| 2026-04-26 01:14 | -8.74646 | 115.16137 | 33 ft | 6 kts | 357° |
| 2026-04-26 01:14 | -8.74624 | 115.16136 | 33 ft | 1 kts | 357° |
| 2026-04-26 01:15 | -8.74658 | 115.16124 | 40 ft | 0 kts | 357° |
| 2026-04-26 01:15 | -8.75746 | 115.15206 | 95 ft | 0 kts | 40° |
| 2026-04-26 01:16 | -8.76075 | 115.13390 | 711 ft | 0 kts | 21° |
| 2026-04-26 01:16 | -8.74915 | 115.10712 | 963 ft | 0 kts | 53° |
| 2026-04-26 01:16 | -8.74802 | 115.12166 | 712 ft | 226 kts | 90° |
| 2026-04-26 01:16 | -8.74964 | 115.10928 | 782 ft | 0 kts | 95° |
| 2026-04-26 01:17 | -8.75129 | 115.09219 | 933 ft | 208 kts | 94° |
| 2026-04-26 01:17 | -8.75168 | 115.10648 | 842 ft | 194 kts | 88° |
| 2026-04-26 01:17 | -8.75062 | 115.11897 | 764 ft | 163 kts | 81° |
| 2026-04-26 01:17 | -8.75011 | 115.12961 | 486 ft | 147 kts | 85° |
| 2026-04-26 01:18 | -8.74962 | 115.13939 | 328 ft | 134 kts | 88° |
| 2026-04-26 01:18 | -8.74921 | 115.14858 | 178 ft | 129 kts | 85° |
| 2026-04-26 01:18 | -8.74883 | 115.15760 | 39 ft | 126 kts | 85° |
| 2026-04-26 01:18 | -8.74970 | 115.13669 | 322 ft | 621 kts | 85° |
| 2026-04-26 01:19 | -8.75165 | 115.10081 | 634 ft | 116 kts | 83° |
| 2026-04-26 01:19 | -8.75121 | 115.10670 | 588 ft | 123 kts | 84° |
| 2026-04-26 01:19 | -8.75112 | 115.10771 | 577 ft | 124 kts | 84° |
| 2026-04-26 01:19 | -8.75027 | 115.11639 | 537 ft | 125 kts | 83° |
| 2026-04-26 01:20 | -8.75146 | 115.12049 | 510 ft | 0 kts | 81° |
| 2026-04-26 01:20 | -8.75141 | 115.12085 | 518 ft | 123 kts | 81° |
| 2026-04-26 01:20 | -8.75135 | 115.12123 | 524 ft | 124 kts | 80° |
| 2026-04-26 01:20 | -8.75005 | 115.12821 | 457 ft | 144 kts | 79° |
| 2026-04-26 01:21 | -8.74966 | 115.13823 | 337 ft | 142 kts | 86° |
| 2026-04-26 01:21 | -8.75004 | 115.13223 | 397 ft | 156 kts | 83° |
| 2026-04-26 01:21 | -8.74950 | 115.14374 | 259 ft | 155 kts | 88° |
| 2026-04-26 01:21 | -8.74900 | 115.15428 | 84 ft | 147 kts | 86° |
| 2026-04-26 01:22 | -8.74858 | 115.16396 | 36 ft | 125 kts | 85° |
| 2026-04-26 01:22 | -8.74949 | 115.15922 | 245 ft | 767 kts | 84° |
| 2026-04-26 01:22 | -8.75007 | 115.12516 | 464 ft | 727 kts | 82° |
| 2026-04-26 01:22 | -8.75071 | 115.11607 | 306 ft | 215 kts | 78° |
| 2026-04-26 01:23 | -8.75132 | 115.09829 | 827 ft | 199 kts | 84° |
| 2026-04-26 01:23 | -8.75072 | 115.10996 | 791 ft | 146 kts | 88° |
| 2026-04-26 01:23 | -8.75029 | 115.12007 | 676 ft | 142 kts | 87° |
| 2026-04-26 01:23 | -8.75012 | 115.12999 | 563 ft | 141 kts | 88° |
| 2026-04-26 01:24 | -8.75004 | 115.12950 | 518 ft | 160 kts | 85° |
| 2026-04-26 01:24 | -8.75009 | 115.12603 | 514 ft | 139 kts | 86° |
| 2026-04-26 01:24 | -8.74970 | 115.13585 | 388 ft | 143 kts | 85° |
| 2026-04-26 01:24 | -8.74936 | 115.14577 | 235 ft | 143 kts | 86° |
| 2026-04-26 01:25 | -8.74889 | 115.15593 | 61 ft | 143 kts | 86° |
| 2026-04-26 01:25 | -8.74854 | 115.16507 | 31 ft | 114 kts | 88° |
| 2026-04-26 01:25 | -8.74812 | 115.17323 | 240 ft | 0 kts | 84° |
| 2026-04-26 01:25 | -8.75094 | 115.13083 | 386 ft | 667 kts | 84° |
| 2026-04-26 01:26 | -8.75113 | 115.12764 | 606 ft | 125 kts | 85° |
| 2026-04-26 01:26 | -8.75093 | 115.11002 | 553 ft | 118 kts | 82° |
| 2026-04-26 01:26 | -8.75031 | 115.11890 | 323 ft | 151 kts | 86° |
| 2026-04-26 01:26 | -8.75010 | 115.13046 | 403 ft | 159 kts | 88° |
| 2026-04-26 01:27 | -8.74950 | 115.14123 | 295 ft | 152 kts | 84° |
| 2026-04-26 01:27 | -8.74907 | 115.15187 | 119 ft | 151 kts | 85° |
| 2026-04-26 01:27 | -8.74870 | 115.16213 | 30 ft | 136 kts | 87° |
| 2026-04-26 01:27 | -8.74974 | 115.13924 | 95 ft | 446 kts | 86° |
| 2026-04-26 01:28 | -8.75044 | 115.12097 | 405 ft | 127 kts | 84° |
| 2026-04-26 01:28 | -8.75003 | 115.13052 | 274 ft | 143 kts | 86° |
| 2026-04-26 01:28 | -8.74952 | 115.14086 | 254 ft | 150 kts | 85° |
| 2026-04-26 01:28 | -8.74909 | 115.15135 | 115 ft | 149 kts | 85° |
| 2026-04-26 01:29 | -8.74873 | 115.16150 | 32 ft | 135 kts | 86° |
| 2026-04-26 01:29 | -8.74839 | 115.16832 | 28 ft | 36 kts | 86° |
| 2026-04-26 01:29 | -8.74837 | 115.16870 | 28 ft | 0 kts | 86° |